createdAt,value
2023-03-25T00:00:16.057Z,97349.28
2023-03-25T00:02:01.684Z,97350.47
2023-03-25T00:03:05.076Z,97353.06
2023-03-25T00:04:12.514Z,97347.84
2023-03-25T00:05:16.537Z,97348.84
2023-03-25T00:06:34.577Z,97344.41
2023-03-25T00:07:41.220Z,97346.22
2023-03-25T00:08:45.139Z,97339.19
2023-03-25T00:09:48.339Z,97328.69
2023-03-25T00:10:54.750Z,97329.50
2023-03-25T00:12:04.135Z,97339.19
2023-03-25T00:13:09.428Z,97340.31
2023-03-25T00:14:12.517Z,97345.75
2023-03-25T00:15:16.894Z,97353.78
2023-03-25T00:16:20.118Z,97351.31
2023-03-25T00:17:31.357Z,97351.50
2023-03-25T00:18:34.615Z,97355.13
2023-03-25T00:19:41.578Z,97349.06
2023-03-25T00:20:49.824Z,97351.84
2023-03-25T00:21:56.684Z,97347.78
2023-03-25T00:23:02.180Z,97349.75
2023-03-25T00:24:06.521Z,97345.50
2023-03-25T00:25:16.598Z,97347.31
2023-03-25T00:26:24.878Z,97349.31
2023-03-25T00:27:27.652Z,97349.63
2023-03-25T00:28:35.421Z,97346.41
2023-03-25T00:29:42.056Z,97355.25
2023-03-25T00:30:46.838Z,97355.56
2023-03-25T00:31:52.221Z,97361.16
2023-03-25T00:32:58.322Z,97360.69
2023-03-25T00:34:02.061Z,97368.88
2023-03-25T00:35:09.009Z,97359.59
2023-03-25T00:36:14.986Z,97358.13
2023-03-25T00:37:43.759Z,97352.59
2023-03-25T00:38:49.638Z,97358.00
2023-03-25T00:40:06.796Z,97352.28
2023-03-25T00:41:32.462Z,97355.44
2023-03-25T00:42:50.056Z,97354.97
2023-03-25T00:43:56.627Z,97350.06
2023-03-25T00:44:59.369Z,97352.88
2023-03-25T00:46:31.888Z,97349.59
2023-03-25T00:47:39.107Z,97357.00
2023-03-25T00:48:46.193Z,97352.72
2023-03-25T00:49:52.882Z,97357.16
2023-03-25T00:50:59.662Z,97355.34
2023-03-25T00:54:00.407Z,97357.44
2023-03-25T00:55:03.648Z,97362.34
2023-03-25T00:56:09.871Z,97360.34
2023-03-25T00:57:12.715Z,97361.97
2023-03-25T00:58:18.898Z,97361.84
2023-03-25T00:59:46.535Z,97357.41
2023-03-25T01:00:49.841Z,97355.78
2023-03-25T01:01:56.371Z,97361.03
2023-03-25T01:03:05.438Z,97360.34
2023-03-25T01:04:12.691Z,97351.88
2023-03-25T01:05:17.550Z,97353.84
2023-03-25T01:06:21.805Z,97352.06
2023-03-25T01:07:24.651Z,97357.28
2023-03-25T01:08:29.931Z,97355.50
2023-03-25T01:09:39.928Z,97359.72
2023-03-25T01:10:56.063Z,97355.31
2023-03-25T01:12:00.980Z,97355.31
2023-03-25T01:13:04.967Z,97353.31
2023-03-25T01:14:09.475Z,97350.56
2023-03-25T01:15:17.526Z,97346.75
2023-03-25T01:16:29.662Z,97350.84
2023-03-25T01:17:33.354Z,97344.63
2023-03-25T01:18:38.847Z,97337.25
2023-03-25T01:19:42.059Z,97342.94
2023-03-25T01:21:04.650Z,97340.63
2023-03-25T01:22:07.668Z,97342.91
2023-03-25T01:23:19.646Z,97338.13
2023-03-25T01:24:22.606Z,97347.91
2023-03-25T01:25:28.537Z,97341.50
2023-03-25T01:26:31.084Z,97342.78
2023-03-25T01:27:35.605Z,97344.22
2023-03-25T01:28:51.076Z,97345.69
2023-03-25T01:29:57.897Z,97347.13
2023-03-25T01:31:18.783Z,97338.94
2023-03-25T01:32:25.074Z,97347.41
2023-03-25T01:33:57.127Z,97348.88
2023-03-25T01:35:00.712Z,97351.50
2023-03-25T01:36:03.491Z,97349.50
2023-03-25T01:37:07.850Z,97353.59
2023-03-25T01:38:09.935Z,97337.88
2023-03-25T01:39:16.687Z,97344.56
2023-03-25T01:40:21.114Z,97346.22
2023-03-25T01:41:24.352Z,97356.69
2023-03-25T01:42:26.756Z,97351.47
2023-03-25T01:43:30.432Z,97361.09
2023-03-25T01:45:10.709Z,97362.09
2023-03-25T01:46:17.383Z,97344.94
2023-03-25T01:47:19.918Z,97359.03
2023-03-25T01:48:25.150Z,97344.28
2023-03-25T01:49:33.475Z,97350.31
2023-03-25T01:51:03.779Z,97343.84
2023-03-25T01:52:09.865Z,97348.25
2023-03-25T01:53:13.638Z,97339.56
2023-03-25T01:54:18.086Z,97343.38
2023-03-25T01:55:21.287Z,97332.88
2023-03-25T01:56:26.835Z,97345.16
2023-03-25T01:57:33.981Z,97353.84
2023-03-25T01:58:44.138Z,97346.97
2023-03-25T01:59:48.202Z,97347.97
2023-03-25T02:00:51.570Z,97350.75
2023-03-25T02:01:57.271Z,97356.16
2023-03-25T02:03:03.537Z,97350.31
2023-03-25T02:04:12.271Z,97346.03
2023-03-25T02:05:19.268Z,97353.88
2023-03-25T02:06:28.650Z,97343.59
2023-03-25T02:07:33.429Z,97335.94
2023-03-25T02:08:39.825Z,97343.78
2023-03-25T02:09:43.008Z,97343.13
2023-03-25T02:10:47.463Z,97340.69
2023-03-25T02:11:50.799Z,97338.06
2023-03-25T02:13:00.592Z,97338.88
2023-03-25T02:14:05.879Z,97330.41
2023-03-25T02:15:10.859Z,97334.97
2023-03-25T02:16:27.128Z,97335.34
2023-03-25T02:17:38.864Z,97332.06
2023-03-25T02:18:48.850Z,97322.97
2023-03-25T02:20:26.131Z,97323.28
2023-03-25T02:21:55.397Z,97322.19
2023-03-25T02:24:14.245Z,97316.84
2023-03-25T02:25:46.172Z,97328.16
2023-03-25T02:27:13.867Z,97336.50
2023-03-25T02:28:26.248Z,97345.88
2023-03-25T02:30:07.613Z,97349.34
2023-03-25T02:31:50.041Z,97355.91
2023-03-25T02:33:38.210Z,97356.09
2023-03-25T02:34:50.258Z,97358.28
2023-03-25T02:36:15.586Z,97366.16
2023-03-25T02:38:10.066Z,97361.94
2023-03-25T02:39:29.535Z,97366.53
2023-03-25T02:40:38.949Z,97362.78
2023-03-25T02:41:48.198Z,97342.38
2023-03-25T02:42:56.395Z,97349.72
2023-03-25T02:44:03.761Z,97337.81
2023-03-25T02:45:12.149Z,97331.78
2023-03-25T02:46:17.565Z,97339.94
2023-03-25T02:47:24.685Z,97339.31
2023-03-25T02:48:34.987Z,97337.00
2023-03-25T02:49:40.511Z,97346.63
2023-03-25T02:50:47.173Z,97341.72
2023-03-25T02:51:54.890Z,97350.56
2023-03-25T02:53:00.044Z,97347.44
2023-03-25T02:54:05.416Z,97358.25
2023-03-25T02:55:12.833Z,97354.00
2023-03-25T02:56:25.711Z,97359.38
2023-03-25T02:57:33.927Z,97352.53
2023-03-25T02:58:38.828Z,97358.72
2023-03-25T02:59:49.116Z,97362.34
2023-03-25T03:00:59.221Z,97360.72
2023-03-25T03:02:03.927Z,97369.19
2023-03-25T03:04:33.709Z,97366.75
2023-03-25T03:05:40.929Z,97364.13
2023-03-25T03:07:07.999Z,97363.97
2023-03-25T03:08:28.245Z,97363.97
2023-03-25T03:09:42.763Z,97374.56
2023-03-25T03:10:52.457Z,97372.78
2023-03-25T03:12:04.942Z,97375.56
2023-03-25T03:13:16.644Z,97379.78
2023-03-25T03:14:49.870Z,97376.38
2023-03-25T03:16:07.886Z,97378.16
2023-03-25T03:17:20.525Z,97379.94
2023-03-25T03:18:38.197Z,97385.16
2023-03-25T03:19:46.574Z,97382.56
2023-03-25T03:20:57.352Z,97388.75
2023-03-25T03:22:03.971Z,97393.16
2023-03-25T03:23:26.132Z,97389.75
2023-03-25T03:24:32.241Z,97396.94
2023-03-25T03:25:38.524Z,97392.66
2023-03-25T03:26:44.912Z,97393.66
2023-03-25T03:27:50.553Z,97399.03
2023-03-25T03:28:59.858Z,97392.34
2023-03-25T03:30:09.057Z,97396.09
2023-03-25T03:31:16.359Z,97393.66
2023-03-25T03:32:43.480Z,97399.19
2023-03-25T03:33:48.311Z,97403.59
2023-03-25T03:34:54.014Z,97399.38
2023-03-25T03:36:02.228Z,97404.41
2023-03-25T03:37:07.038Z,97409.63
2023-03-25T03:38:11.994Z,97408.00
2023-03-25T03:39:20.004Z,97410.78
2023-03-25T03:40:23.871Z,97413.41
2023-03-25T03:41:28.459Z,97413.41
2023-03-25T03:42:35.330Z,97409.81
2023-03-25T03:43:43.075Z,97408.00
2023-03-25T03:44:53.155Z,97401.97
2023-03-25T03:46:24.973Z,97399.38
2023-03-25T03:47:30.673Z,97400.19
2023-03-25T03:48:40.477Z,97399.19
2023-03-25T03:50:09.444Z,97400.19
2023-03-25T03:51:18.808Z,97392.53
2023-03-25T03:52:25.914Z,97400.19
2023-03-25T03:53:30.317Z,97400.19
2023-03-25T03:54:40.417Z,97394.16
2023-03-25T03:55:48.064Z,97393.16
2023-03-25T03:56:56.003Z,97398.56
2023-03-25T03:58:10.059Z,97396.59
2023-03-25T03:59:17.492Z,97394.97
2023-03-25T04:00:24.321Z,97398.56
2023-03-25T04:01:36.259Z,97397.88
2023-03-25T04:02:41.465Z,97409.31
2023-03-25T04:04:07.946Z,97405.38
2023-03-25T04:05:16.313Z,97409.97
2023-03-25T04:06:25.804Z,97412.88
2023-03-25T04:07:39.055Z,97408.63
2023-03-25T04:08:51.998Z,97410.59
2023-03-25T04:09:57.873Z,97414.34
2023-03-25T04:11:07.964Z,97410.28
2023-03-25T04:12:14.469Z,97410.41
2023-03-25T04:13:19.330Z,97406.34
2023-03-25T04:14:21.505Z,97408.94
2023-03-25T04:15:24.469Z,97407.31
2023-03-25T04:16:26.563Z,97404.03
2023-03-25T04:17:33.069Z,97403.22
2023-03-25T04:21:15.757Z,97407.72
2023-03-25T04:22:19.305Z,97405.28
2023-03-25T04:23:26.233Z,97402.69
2023-03-25T04:24:39.399Z,97395.84
2023-03-25T04:25:48.079Z,97404.66
2023-03-25T04:26:53.336Z,97405.59
2023-03-25T04:28:00.104Z,97411.78
2023-03-25T04:29:04.732Z,97409.19
2023-03-25T04:30:13.415Z,97410.81
2023-03-25T04:31:17.941Z,97405.59
2023-03-25T04:32:22.449Z,97404.78
2023-03-25T04:33:32.351Z,97397.94
2023-03-25T04:34:58.109Z,97408.53
2023-03-25T04:36:03.872Z,97408.84
2023-03-25T04:37:26.386Z,97405.44
2023-03-25T04:38:29.883Z,97406.56
2023-03-25T04:39:33.793Z,97402.47
2023-03-25T04:40:46.892Z,97407.06
2023-03-25T04:42:17.962Z,97409.44
2023-03-25T04:43:21.243Z,97411.41
2023-03-25T04:44:27.292Z,97414.31
2023-03-25T04:45:30.939Z,97411.06
2023-03-25T04:46:36.557Z,97414.66
2023-03-25T04:47:45.245Z,97420.84
2023-03-25T04:48:56.333Z,97424.41
2023-03-25T04:49:59.052Z,97423.44
2023-03-25T04:51:03.531Z,97427.00
2023-03-25T04:52:06.614Z,97420.84
2023-03-25T04:53:16.441Z,97428.66
2023-03-25T04:54:19.673Z,97429.47
2023-03-25T04:55:24.040Z,97436.50
2023-03-25T04:56:52.143Z,97438.13
2023-03-25T04:58:21.303Z,97439.22
2023-03-25T04:59:27.229Z,97438.41
2023-03-25T05:00:32.085Z,97439.09
2023-03-25T05:01:38.041Z,97428.66
2023-03-25T05:02:57.118Z,97428.50
2023-03-25T05:04:08.780Z,97431.75
2023-03-25T05:05:24.641Z,97429.81
2023-03-25T05:08:26.399Z,97425.06
2023-03-25T05:09:30.312Z,97436.63
2023-03-25T05:10:39.065Z,97434.84
2023-03-25T05:11:42.438Z,97426.06
2023-03-25T05:12:47.120Z,97435.50
2023-03-25T05:13:49.746Z,97436.16
2023-03-25T05:14:57.283Z,97432.56
2023-03-25T05:16:02.495Z,97431.63
2023-03-25T05:17:06.897Z,97437.47
2023-03-25T05:18:10.618Z,97431.47
2023-03-25T05:19:17.845Z,97439.13
2023-03-25T05:20:23.035Z,97436.50
2023-03-25T05:21:27.419Z,97438.28
2023-03-25T05:22:39.958Z,97435.53
2023-03-25T05:23:45.353Z,97432.91
2023-03-25T05:24:53.860Z,97434.56
2023-03-25T05:25:59.303Z,97433.59
2023-03-25T05:27:02.640Z,97441.41
2023-03-25T05:28:16.865Z,97447.44
2023-03-25T05:29:22.849Z,97444.84
2023-03-25T05:30:35.090Z,97449.06
2023-03-25T05:31:42.167Z,97455.91
2023-03-25T05:32:51.201Z,97452.19
2023-03-25T05:34:00.475Z,97439.81
2023-03-25T05:35:12.305Z,97450.75
2023-03-25T05:36:18.173Z,97448.78
2023-03-25T05:37:41.108Z,97439.69
2023-03-25T05:38:54.787Z,97447.50
2023-03-25T05:39:59.665Z,97450.63
2023-03-25T05:41:03.624Z,97442.47
2023-03-25T05:42:07.998Z,97450.03
2023-03-25T05:43:11.230Z,97453.28
2023-03-25T05:44:41.799Z,97451.34
2023-03-25T05:45:47.420Z,97464.06
2023-03-25T05:47:03.017Z,97458.19
2023-03-25T05:48:09.198Z,97465.03
2023-03-25T05:49:13.184Z,97463.91
2023-03-25T05:50:17.228Z,97461.13
2023-03-25T05:51:25.917Z,97460.97
2023-03-25T05:52:28.945Z,97469.47
2023-03-25T05:53:33.177Z,97468.50
2023-03-25T05:54:42.339Z,97470.94
2023-03-25T05:55:52.661Z,97477.94
2023-03-25T05:56:55.673Z,97477.66
2023-03-25T05:57:59.692Z,97466.06
2023-03-25T05:59:03.935Z,97463.94
2023-03-25T06:00:15.700Z,97462.50
2023-03-25T06:01:32.541Z,97464.47
2023-03-25T06:02:39.063Z,97458.59
2023-03-25T06:03:45.809Z,97458.28
2023-03-25T06:04:51.185Z,97450.09
2023-03-25T06:05:58.657Z,97448.00
2023-03-25T06:07:01.868Z,97447.53
2023-03-25T06:08:06.737Z,97454.19
2023-03-25T06:09:13.251Z,97453.88
2023-03-25T06:10:18.441Z,97458.78
2023-03-25T06:11:20.944Z,97457.81
2023-03-25T06:12:28.404Z,97459.13
2023-03-25T06:16:11.918Z,97477.25
2023-03-25T06:17:19.141Z,97472.81
2023-03-25T06:18:24.968Z,97476.44
2023-03-25T06:19:28.424Z,97471.50
2023-03-25T06:20:30.962Z,97474.28
2023-03-25T06:21:35.687Z,97473.47
2023-03-25T06:24:22.281Z,97479.19
2023-03-25T06:28:37.191Z,97485.69
2023-03-25T06:29:41.986Z,97486.22
2023-03-25T06:31:07.344Z,97482.13
2023-03-25T06:32:12.808Z,97492.59
2023-03-25T06:33:42.902Z,97491.94
2023-03-25T06:34:55.621Z,97491.94
2023-03-25T06:35:58.686Z,97496.50
2023-03-25T06:37:05.698Z,97490.66
2023-03-25T06:38:14.045Z,97492.59
2023-03-25T06:39:41.849Z,97495.34
2023-03-25T06:41:04.231Z,97496.19
2023-03-25T06:42:09.050Z,97492.72
2023-03-25T06:43:28.091Z,97492.06
2023-03-25T06:45:05.327Z,97493.03
2023-03-25T06:46:23.341Z,97496.16
2023-03-25T06:47:47.996Z,97486.81
2023-03-25T06:48:57.723Z,97485.38
2023-03-25T06:50:11.939Z,97488.94
2023-03-25T06:51:17.840Z,97479.25
2023-03-25T06:52:28.241Z,97472.19
2023-03-25T06:53:32.010Z,97478.38
2023-03-25T06:54:36.241Z,97477.69
2023-03-25T06:55:59.472Z,97480.28
2023-03-25T06:57:03.129Z,97477.00
2023-03-25T06:58:06.313Z,97485.97
2023-03-25T06:59:09.599Z,97483.81
2023-03-25T07:00:14.246Z,97488.22
2023-03-25T07:01:20.593Z,97480.53
2023-03-25T07:02:23.415Z,97479.53
2023-03-25T07:03:27.155Z,97478.91
2023-03-25T07:04:31.008Z,97466.81
2023-03-25T07:05:34.635Z,97477.28
2023-03-25T07:06:38.003Z,97480.72
2023-03-25T07:07:44.437Z,97480.72
2023-03-25T07:08:49.189Z,97486.78
2023-03-25T07:09:52.745Z,97482.97
2023-03-25T07:11:05.310Z,97481.84
2023-03-25T07:12:09.179Z,97479.03
2023-03-25T07:13:13.380Z,97476.72
2023-03-25T07:14:16.811Z,97475.22
2023-03-25T07:15:29.724Z,97474.53
2023-03-25T07:16:39.840Z,97476.63
2023-03-25T07:17:49.398Z,97468.72
2023-03-25T07:18:55.109Z,97480.13
2023-03-25T07:19:59.478Z,97472.41
2023-03-25T07:21:03.333Z,97470.69
2023-03-25T07:22:08.440Z,97465.13
2023-03-25T07:23:12.679Z,97460.97
2023-03-25T07:25:09.239Z,97469.91
2023-03-25T07:26:16.681Z,97464.94
2023-03-25T07:27:19.599Z,97458.16
2023-03-25T07:28:38.205Z,97459.28
2023-03-25T07:29:40.956Z,97452.84
2023-03-25T07:30:44.790Z,97452.31
2023-03-25T07:31:51.408Z,97452.94
2023-03-25T07:32:54.588Z,97462.72
2023-03-25T07:33:59.988Z,97458.75
2023-03-25T07:35:10.544Z,97449.19
2023-03-25T07:36:15.099Z,97454.44
2023-03-25T07:37:20.131Z,97449.19
2023-03-25T07:38:24.270Z,97448.81
2023-03-25T07:39:27.316Z,97449.56
2023-03-25T07:40:30.795Z,97433.34
2023-03-25T07:41:33.780Z,97446.28
2023-03-25T07:43:00.434Z,97448.00
2023-03-25T07:44:21.925Z,97439.63
2023-03-25T07:45:27.448Z,97435.19
2023-03-25T07:46:34.313Z,97440.66
2023-03-25T07:47:38.501Z,97439.41
2023-03-25T07:48:41.860Z,97430.28
2023-03-25T07:49:50.136Z,97437.28
2023-03-25T07:50:53.910Z,97436.84
2023-03-25T07:51:57.206Z,97435.53
2023-03-25T07:52:59.426Z,97429.94
2023-03-25T07:54:07.936Z,97435.50
2023-03-25T07:55:10.807Z,97426.44
2023-03-25T07:56:14.648Z,97431.13
2023-03-25T07:57:18.206Z,97435.63
2023-03-25T07:58:21.147Z,97437.69
2023-03-25T07:59:24.405Z,97432.41
2023-03-25T08:00:53.130Z,97429.59
2023-03-25T08:01:56.766Z,97428.75
2023-03-25T08:03:07.030Z,97425.53
2023-03-25T08:04:10.279Z,97430.81
2023-03-25T08:05:13.120Z,97426.13
2023-03-25T08:06:39.836Z,97432.19
2023-03-25T08:07:46.859Z,97428.84
2023-03-25T08:08:52.934Z,97430.25
2023-03-25T08:09:55.593Z,97424.75
2023-03-25T08:11:08.963Z,97433.00
2023-03-25T08:12:11.188Z,97429.28
2023-03-25T08:13:17.788Z,97427.00
2023-03-25T08:14:21.762Z,97425.38
2023-03-25T08:15:28.487Z,97430.50
2023-03-25T08:16:31.439Z,97421.44
2023-03-25T08:17:35.104Z,97425.34
2023-03-25T08:18:40.662Z,97423.38
2023-03-25T08:19:45.497Z,97425.69
2023-03-25T08:20:50.807Z,97423.66
2023-03-25T08:21:56.233Z,97427.91
2023-03-25T08:22:59.157Z,97429.53
2023-03-25T08:24:04.741Z,97427.28
2023-03-25T08:25:08.420Z,97429.06
2023-03-25T08:26:14.202Z,97423.16
2023-03-25T08:27:20.021Z,97422.34
2023-03-25T08:28:23.800Z,97410.41
2023-03-25T08:29:34.779Z,97417.31
2023-03-25T08:30:39.310Z,97406.22
2023-03-25T08:31:42.017Z,97422.88
2023-03-25T08:32:54.994Z,97404.22
2023-03-25T08:33:58.284Z,97408.69
2023-03-25T08:35:00.371Z,97413.09
2023-03-25T08:36:03.637Z,97414.34
2023-03-25T08:37:08.681Z,97413.09
2023-03-25T08:38:12.583Z,97415.38
2023-03-25T08:39:17.416Z,97412.91
2023-03-25T08:40:33.190Z,97412.34
2023-03-25T08:41:41.748Z,97407.44
2023-03-25T08:42:46.256Z,97416.19
2023-03-25T08:43:54.468Z,97417.38
2023-03-25T08:44:58.011Z,97415.78
2023-03-25T08:46:01.105Z,97419.22
2023-03-25T08:47:05.026Z,97413.34
2023-03-25T08:48:10.507Z,97417.63
2023-03-25T08:49:13.492Z,97418.63
2023-03-25T08:50:16.608Z,97416.41
2023-03-25T08:51:23.215Z,97417.63
2023-03-25T08:52:27.112Z,97420.00
2023-03-25T08:53:30.122Z,97421.03
2023-03-25T08:54:32.099Z,97413.94
2023-03-25T08:55:35.678Z,97417.94
2023-03-25T08:56:38.575Z,97413.06
2023-03-25T08:57:52.113Z,97411.66
2023-03-25T08:58:55.314Z,97411.22
2023-03-25T08:59:59.486Z,97414.50
2023-03-25T09:01:02.640Z,97416.72
2023-03-25T09:02:07.367Z,97407.78
2023-03-25T09:03:13.352Z,97408.22
2023-03-25T09:04:16.729Z,97414.94
2023-03-25T09:05:21.133Z,97409.88
2023-03-25T09:06:30.510Z,97412.53
2023-03-25T09:07:52.568Z,97408.47
2023-03-25T09:08:56.252Z,97410.31
2023-03-25T09:09:59.221Z,97403.97
2023-03-25T09:11:03.845Z,97402.38
2023-03-25T09:12:07.995Z,97409.47
2023-03-25T09:13:14.434Z,97402.59
2023-03-25T09:14:17.961Z,97407.28
2023-03-25T09:15:33.680Z,97408.69
2023-03-25T09:16:36.318Z,97402.59
2023-03-25T09:17:43.118Z,97410.31
2023-03-25T09:18:46.120Z,97403.00
2023-03-25T09:19:57.039Z,97413.34
2023-03-25T09:21:03.076Z,97404.81
2023-03-25T09:22:31.917Z,97399.16
2023-03-25T09:23:40.075Z,97404.44
2023-03-25T09:24:42.552Z,97397.13
2023-03-25T09:25:46.760Z,97393.06
2023-03-25T09:27:01.371Z,97392.84
2023-03-25T09:28:10.101Z,97383.94
2023-03-25T09:29:13.822Z,97393.28
2023-03-25T09:30:16.660Z,97398.31
2023-03-25T09:31:26.417Z,97387.56
2023-03-25T09:32:28.744Z,97387.38
2023-03-25T09:33:32.913Z,97395.28
2023-03-25T09:34:35.901Z,97395.88
2023-03-25T09:35:42.449Z,97401.94
2023-03-25T09:36:46.098Z,97406.19
2023-03-25T09:37:52.042Z,97397.81
2023-03-25T09:38:57.121Z,97388.78
2023-03-25T09:39:59.936Z,97399.31
2023-03-25T09:41:05.867Z,97399.69
2023-03-25T09:42:16.939Z,97401.59
2023-03-25T09:43:40.451Z,97403.69
2023-03-25T09:44:52.897Z,97397.81
2023-03-25T09:45:57.041Z,97400.69
2023-03-25T09:47:01.067Z,97399.53
2023-03-25T09:48:07.533Z,97405.97
2023-03-25T09:49:16.823Z,97401.34
2023-03-25T09:50:20.599Z,97388.97
2023-03-25T09:51:26.950Z,97403.19
2023-03-25T09:52:34.941Z,97390.22
2023-03-25T09:53:45.931Z,97388.00
2023-03-25T09:54:53.369Z,97390.03
2023-03-25T09:56:01.472Z,97390.44
2023-03-25T09:57:08.495Z,97386.97
2023-03-25T09:58:29.928Z,97389.00
2023-03-25T09:59:39.401Z,97378.25
2023-03-25T10:00:42.172Z,97385.34
2023-03-25T10:01:49.254Z,97378.47
2023-03-25T10:02:57.410Z,97376.81
2023-03-25T10:04:29.111Z,97381.69
2023-03-25T10:05:52.910Z,97373.50
2023-03-25T10:07:20.116Z,97368.22
2023-03-25T10:08:33.943Z,97370.75
2023-03-25T10:09:59.289Z,97366.81
2023-03-25T10:11:07.610Z,97357.75
2023-03-25T10:12:27.041Z,97365.91
2023-03-25T10:13:57.954Z,97352.47
2023-03-25T10:15:14.468Z,97352.25
2023-03-25T10:16:23.096Z,97349.88
2023-03-25T10:17:32.071Z,97355.06
2023-03-25T10:18:46.616Z,97349.25
2023-03-25T10:19:59.496Z,97355.22
2023-03-25T10:21:04.406Z,97348.16
2023-03-25T10:22:10.755Z,97353.47
2023-03-25T10:23:20.519Z,97352.69
2023-03-25T10:24:30.050Z,97351.09
2023-03-25T10:25:38.349Z,97350.44
2023-03-25T10:26:44.381Z,97356.50
2023-03-25T10:27:48.836Z,97346.53
2023-03-25T10:28:55.491Z,97356.63
2023-03-25T10:30:01.293Z,97350.72
2023-03-25T10:31:06.887Z,97358.97
2023-03-25T10:32:17.158Z,97353.41
2023-03-25T10:33:28.042Z,97358.38
2023-03-25T10:34:36.459Z,97355.41
2023-03-25T10:36:07.066Z,97353.47
2023-03-25T10:37:13.077Z,97344.38
2023-03-25T10:38:18.807Z,97336.34
2023-03-25T10:39:23.581Z,97346.50
2023-03-25T10:40:31.120Z,97351.09
2023-03-25T10:41:37.429Z,97355.22
2023-03-25T10:42:45.300Z,97355.19
2023-03-25T10:43:57.125Z,97348.50
2023-03-25T10:45:01.278Z,97341.72
2023-03-25T10:46:14.416Z,97350.59
2023-03-25T10:47:19.197Z,97348.97
2023-03-25T10:48:25.303Z,97342.28
2023-03-25T10:49:29.914Z,97350.69
2023-03-25T10:50:33.133Z,97355.66
2023-03-25T10:51:36.245Z,97351.13
2023-03-25T10:52:39.006Z,97370.75
2023-03-25T10:53:41.916Z,97379.38
2023-03-25T10:54:46.689Z,97379.41
2023-03-25T10:55:53.614Z,97391.06
2023-03-25T10:56:59.939Z,97401.88
2023-03-25T10:58:02.954Z,97385.50
2023-03-25T10:59:12.373Z,97400.34
2023-03-25T11:00:16.853Z,97409.69
2023-03-25T11:01:21.464Z,97407.63
2023-03-25T11:02:25.642Z,97413.19
2023-03-25T11:03:32.125Z,97418.00
2023-03-25T11:04:37.872Z,97414.53
2023-03-25T11:05:41.304Z,97404.28
2023-03-25T11:06:46.068Z,97394.13
2023-03-25T11:07:51.719Z,97382.88
2023-03-25T11:09:12.233Z,97369.16
2023-03-25T11:10:21.324Z,97372.28
2023-03-25T11:11:32.152Z,97374.22
2023-03-25T11:12:42.963Z,97374.00
2023-03-25T11:13:46.390Z,97375.50
2023-03-25T11:14:57.943Z,97375.66
2023-03-25T11:16:02.544Z,97380.53
2023-03-25T11:17:09.606Z,97374.25
2023-03-25T11:18:14.894Z,97374.13
2023-03-25T11:19:22.630Z,97363.53
2023-03-25T11:20:28.881Z,97366.41
2023-03-25T11:21:34.057Z,97367.19
2023-03-25T11:22:37.643Z,97371.25
2023-03-25T11:23:45.084Z,97363.69
2023-03-25T11:24:49.714Z,97360.31
2023-03-25T11:25:54.211Z,97359.50
2023-03-25T11:26:57.411Z,97352.78
2023-03-25T11:28:03.196Z,97348.50
2023-03-25T11:29:08.469Z,97343.56
2023-03-25T11:30:16.366Z,97340.19
2023-03-25T11:31:20.988Z,97344.31
2023-03-25T11:32:25.214Z,97343.56
2023-03-25T11:33:28.297Z,97341.75
2023-03-25T11:34:31.246Z,97338.69
2023-03-25T11:35:38.337Z,97339.88
2023-03-25T11:36:41.123Z,97329.50
2023-03-25T11:37:46.765Z,97337.00
2023-03-25T11:38:53.596Z,97325.78
2023-03-25T11:39:57.115Z,97326.19
2023-03-25T11:40:59.941Z,97330.22
2023-03-25T11:42:25.325Z,97335.19
2023-03-25T11:43:34.304Z,97337.09
2023-03-25T11:44:36.661Z,97332.13
2023-03-25T11:45:40.265Z,97332.88
2023-03-25T11:46:43.348Z,97337.28
2023-03-25T11:47:46.414Z,97337.34
2023-03-25T11:48:50.103Z,97325.78
2023-03-25T11:49:54.162Z,97328.34
2023-03-25T11:50:58.125Z,97332.75
2023-03-25T11:52:02.370Z,97327.81
2023-03-25T11:53:11.228Z,97324.88
2023-03-25T11:54:18.117Z,97323.66
2023-03-25T11:55:24.046Z,97315.84
2023-03-25T11:56:30.420Z,97306.81
2023-03-25T11:57:37.609Z,97316.50
2023-03-25T11:58:42.079Z,97304.25
2023-03-25T11:59:45.555Z,97317.13
2023-03-25T12:00:49.998Z,97304.22
2023-03-25T12:02:03.231Z,97316.69
2023-03-25T12:03:08.173Z,97311.22
2023-03-25T12:04:16.190Z,97313.00
2023-03-25T12:05:20.232Z,97305.94
2023-03-25T12:06:22.710Z,97307.00
2023-03-25T12:07:26.340Z,97307.84
2023-03-25T12:08:42.760Z,97301.41
2023-03-25T12:09:55.609Z,97308.59
2023-03-25T12:11:09.117Z,97313.19
2023-03-25T12:12:26.986Z,97312.84
2023-03-25T12:13:40.954Z,97327.53
2023-03-25T12:15:07.129Z,97320.94
2023-03-25T12:16:21.645Z,97310.88
2023-03-25T12:17:32.774Z,97315.59
2023-03-25T12:18:48.280Z,97303.81
2023-03-25T12:19:57.522Z,97303.34
2023-03-25T12:21:07.585Z,97303.78
2023-03-25T12:22:19.412Z,97289.81
2023-03-25T12:23:29.857Z,97298.19
2023-03-25T12:24:42.093Z,97302.94
2023-03-25T12:25:54.668Z,97303.56
2023-03-25T12:27:14.307Z,97301.75
2023-03-25T12:28:32.371Z,97306.50
2023-03-25T12:29:41.838Z,97310.47
2023-03-25T12:30:54.435Z,97302.97
2023-03-25T12:32:09.047Z,97293.00
2023-03-25T12:33:23.095Z,97290.91
2023-03-25T12:34:32.948Z,97293.22
2023-03-25T12:35:40.579Z,97287.06
2023-03-25T12:36:49.541Z,97282.66
2023-03-25T12:38:18.123Z,97286.13
2023-03-25T12:39:45.936Z,97280.78
2023-03-25T12:41:12.368Z,97288.31
2023-03-25T12:42:26.020Z,97293.41
2023-03-25T12:43:33.498Z,97297.66
2023-03-25T12:44:52.841Z,97300.63
2023-03-25T12:46:09.417Z,97309.59
2023-03-25T12:47:17.053Z,97307.16
2023-03-25T12:48:29.577Z,97306.16
2023-03-25T12:49:43.434Z,97311.06
2023-03-25T12:50:52.688Z,97325.28
2023-03-25T12:51:59.803Z,97327.06
2023-03-25T12:53:13.484Z,97324.31
2023-03-25T12:54:29.922Z,97328.69
2023-03-25T12:55:45.529Z,97327.44
2023-03-25T12:56:53.931Z,97326.41
2023-03-25T12:58:09.801Z,97322.38
2023-03-25T12:59:38.423Z,97337.50
2023-03-25T13:00:48.144Z,97325.59
2023-03-25T13:02:02.320Z,97333.72
2023-03-25T13:03:36.027Z,97334.84
2023-03-25T13:04:49.241Z,97330.88
2023-03-25T13:06:36.264Z,97334.81
2023-03-25T13:07:44.664Z,97339.34
2023-03-25T13:08:52.241Z,97334.28
2023-03-25T13:09:59.438Z,97324.97
2023-03-25T13:11:06.571Z,97324.16
2023-03-25T13:12:13.242Z,97323.69
2023-03-25T13:13:19.772Z,97319.50
2023-03-25T13:14:27.270Z,97322.00
2023-03-25T13:15:33.204Z,97317.31
2023-03-25T13:16:42.031Z,97315.34
2023-03-25T13:17:48.708Z,97311.72
2023-03-25T13:18:56.804Z,97313.34
2023-03-25T13:20:01.209Z,97314.50
2023-03-25T13:21:13.374Z,97312.06
2023-03-25T13:22:20.263Z,97310.53
2023-03-25T13:23:23.754Z,97309.91
2023-03-25T13:24:31.897Z,97304.25
2023-03-25T13:25:37.479Z,97302.81
2023-03-25T13:26:44.564Z,97313.59
2023-03-25T13:27:48.287Z,97302.81
2023-03-25T13:28:56.075Z,97306.72
2023-03-25T13:30:24.383Z,97305.22
2023-03-25T13:31:28.978Z,97303.91
2023-03-25T13:32:34.754Z,97301.84
2023-03-25T13:33:44.314Z,97305.31
2023-03-25T13:34:50.197Z,97299.28
2023-03-25T13:36:22.137Z,97297.72
2023-03-25T13:37:29.264Z,97303.22
2023-03-25T13:38:58.062Z,97299.28
2023-03-25T13:40:17.993Z,97301.59
2023-03-25T13:41:25.963Z,97294.19
2023-03-25T13:42:35.093Z,97297.53
2023-03-25T13:43:44.916Z,97302.47
2023-03-25T13:44:47.848Z,97299.22
2023-03-25T13:46:12.114Z,97297.16
2023-03-25T13:47:19.597Z,97284.78
2023-03-25T13:48:32.044Z,97288.13